Está en la página 1de 4

VII Lidl to Lidl 2019 - 9km

Cursa per muntanya


domingo, 10 de febrero de 2019

Trideporte

RESULTATS ABSOLUTS VII Lidl to Lidl 2019 - 9km


Dorsal Nom i Llinatges Any nax Club/Ciutat Pos-Cat T_Oficial m/km Pos Real T_Real
1 1012 Otman Bourass 1992 1- abM 0:36:45 4:05

2 1075 Rubén Torres Ramiro 1990 Portinatx 2- abM 0:37:55 4:13

3 1125 Vicente Roig Arteaga 1978 El Comodín 3- abM 0:38:08 4:14

4 1067 Jose Antonio Planells García 1975 Cirf 1-V40M 0:39:36 4:24

5 1135 Jose Vicente Gadea Sanchez 1970 Sa Raval 2-V40M 0:40:08 4:28

6 1145 Raul Casañ Marti 1976 Peña Deportiva Santa Eulari 3-V40M 0:41:18 4:35

7 1118 Jose Luis Gambacorta 1975 Bifit Ibiza Triatlon 4-V40M 0:41:34 4:37

8 1115 Francisco Javier Casanueva Diaz 1981 Club Atletisme Santa Eulària 1-V30M 0:41:48 4:39

9 1110 Daniel González Fernández 1987 Piecitos 2-V30M 0:42:08 4:41

10 1060 Manuel Moreno Aguado 1976 Sa Raval 5-V40M 0:42:34 4:44

11 1122 José Serra Torres 1982 Sa Raval 3-V30M 0:43:04 4:47

12 1119 Javier Hernández Díaz 1987 Club Atletismo Ibiza 4-V30M 0:43:16 4:48

13 1058 Vicent Juan Riera 1979 Fisioeivissa 6-V40M 0:44:49 4:59

14 1107 Raúl Mato Alonso 1984 5-V30M 0:45:08 5:01

15 1011 Pau Garcia Quinteiro 1994 6-V30M 0:45:33 5:04

16 1124 David Mangas 1979 Es cami vell 7-V40M 0:45:36 5:04

17 1019 Julio Jiménez Crespo 1987 Viva Er Betis 7-V30M 0:46:06 5:07

18 1003 Victor Salvadó Palacio 1990 8-V30M 0:46:08 5:08

19 1139 Carolina Gámez Bustos F 1982 Club Atletisme Santa Eulària 1- abF 0:46:29 5:10

20 1008 Sergio Medel 1980 9-V30M 0:46:38 5:11

21 1156 Emilio Escudero Marí 1966 Cirf 1-V50M 0:46:41 5:11

22 1129 Oliver Bernal Pike 1990 Club Atletisme Santa Eulària 10-V30M 0:46:47 5:12

23 1136 Aurelio Díaz Tercero 1965 Club Atletisme Santa Eulària 2-V50M 0:47:16 5:15

24 1134 Marc Josep Mari Ferrer 1986 Grup Esportiu Espalmador d 11-V30M 0:47:47 5:19

25 1103 Laura Santamaria Del Campo F 1984 2- abF 0:49:13 5:28

26 1148 Jose María González 1978 G.D. Presuntos Triatletas 8-V40M 0:49:57 5:33

27 1054 David Estevez Martinez 1984 12-V30M 0:50:26 5:36

28 1151 Sandra Aparicio Lozano F 1975 3- abF 0:50:30 5:37

29 1039 Antonio javier Galdon Cardona 1981 Eiviatletisme 13-V30M 0:50:50 5:39

30 1072 Gabriel Barres Bueno 1986 14-V30M 0:50:50 5:39

31 1010 Pep Toni Miras Campins 1991 15-V30M 0:51:38 5:44

32 1116 Antonio Carreño Poley 1962 Club Atletisme Santa Eulària 3-V50M 0:51:57 5:46

33 1106 Cristina Guiral Giménez F 1974 Club Atletismo Ibiza 1- V40F 0:52:02 5:47

34 1020 Jose Juan Planells Planells 1986 Gas 16-V30M 0:52:20 5:49

35 1101 Vicente Bonet Tur 1983 C. Ciclista Sant Antoni 17-V30M 0:52:22 5:49

36 1053 Jack Bowman 1974 9-V40M 0:52:25 5:49

37 1061 Antonio Muñoz Moreno 1976 G.D. Presuntos Triatletas 10-V40M 0:52:30 5:50

38 1121 Joan Serra Cardona 1987 G.D. Presuntos Triatletas 18-V30M 0:52:32 5:50

Página 1 de 4

www.elitechip.net info@elitechip.net TEL.676 035 552


Dorsal Nom i Llinatges Any nax Club/Ciutat Pos-Cat T_Oficial m/km Pos Real T_Real
39 1113 Francisco José Pérez Hernández 1980 Bfit Ibiza Triatlon 19-V30M 0:52:38 5:51

40 1128 Xevi Jiménez Avila 1973 Sa Raval 11-V40M 0:52:48 5:52

41 1046 Adriana Molina Santamaría F 1989 Origin 1- V30F 0:52:51 5:52

42 1105 Elias Chamorro 1969 4-V50M 0:52:55 5:53

43 1102 Luis E Gomez Fernandez 1982 G.D. Presuntos Triatletas 20-V30M 0:53:01 5:53

44 1149 Luisa Anne Bonet Tempelto F 1984 Club Atletisme Santa Eulària 2- V30F 0:53:10 5:54

45 1035 David Esteban Santacruz Gonzalez1980 Independiente 21-V30M 0:53:11 5:55

46 1117 Juan Balaguer 1979 12-V40M 0:53:39 5:58

47 1030 Francisco Madrid Orvay 1974 13-V40M 0:53:44 5:58

48 1043 Alejandro Coleto Muñoz 1987 22-V30M 0:53:44 5:58

49 1109 Maria Jose Morell Salguero F 1975 Triatló Santa Eulària 2- V40F 0:53:50 5:59

50 1063 Jordi Rayus 1981 G. D. Presuntos Triatletas 23-V30M 0:54:10 6:01

51 F 1980
1048 Teodora Petrova Mayorgas Salinero 3- V30F 0:54:27 6:03

52 1068 Santi Maillo Vendrell 1984 24-V30M 0:54:27 6:03

53 1049 Miguel Angel Campello Marin 1980 25-V30M 0:54:28 6:03

54 1153 Gabriel Bover Alvarado 1978 No club 14-V40M 0:54:52 6:06

55 1051 Juan Salinero Cardona 1985 26-V30M 0:55:20 6:09

56 1034 Donna Warren F 1970 Running Ibiza 3- V40F 0:55:23 6:09

57 1158 Jesus Manuel Sanchez Brea 1974 G.D. Presuntos Triatletas 15-V40M 0:55:31 6:10

58 1025 JORGE Tur Torres 1987 27-V30M 0:55:32 6:10

59 1069 Jose Maria Lopez Montoya 1965 Fisioeivissa 5-V50M 0:55:38 6:11

60 1111 Jonay Marcos Martin 1989 28-V30M 0:56:04 6:14

61 1056 Paulo Porto Roig 2010 Aubarca Trail 1-S18M 0:56:19 6:15

62 1100 James Thompson 1974 1- OPM 0:56:20 6:16

63 1104 Juan Vives Canaves 1983 29-V30M 0:56:37 6:17

64 1026 Jorge Rodriguez 1979 16-V40M 0:56:44 6:18

65 1112 BEATRIZ NAVARRO Moreno F 1988 4- V30F 0:57:01 6:20

66 1123 Vicent Tur Ferrer 1972 Presuntos Triatletas 17-V40M 0:57:14 6:22

67 1127 Tiko Bonet Tur 1985 C. Ciclista Sant Antoni 30-V30M 0:57:29 6:23

68 1155 Esther Villalba Espigares F 1971 Club Atletisme Santa Eulària 4- V40F 0:57:29 6:23

69 1001 Yolanda Lopez Rico F 1978 5- V40F 0:57:41 6:25

70 1015 Marc Serra Egea 2009 TriDeporte 2-S18M 0:58:14 6:28

71 1108 Pascual Villalba 1983 Eiviatletisme Club Esportiu 31-V30M 0:58:30 6:30

72 1038 Cristina Peire Ruiz F 1977 Independiente 6- V40F 0:58:37 6:31

73 1130 Aneta Maria Moldovan MoldovanF 1983 Vampirita 5- V30F 0:59:32 6:37

74 1021 Juan Jose Torres Ribas 1985 32-V30M 0:59:33 6:37

75 1007 Sergio Paque Maqueda 1983 33-V30M 1:00:18 6:42

76 1016 Marc Canals Chico 1982 34-V30M 1:00:27 6:43

77 1064 Adelina Diaz Pinto F 1978 Club Atletismo Ibiza 7- V40F 1:01:05 6:47

78 1052 JORGE HERRERA 1973 Casa Fameliar Running 18-V40M 1:01:15 6:48

79 1036 David Martín Rodríguez 1988 Triana 35-V30M 1:01:45 6:52

80 1032 Francisca Castello Montalban F 1981 6- V30F 1:01:46 6:52

81 1142 Natalia Domene Rowlands F 1979 7- V30F 1:02:10 6:54

82 1126 Sonia Ribas Ferrer F 1979 C.C.Calçonassos 8- V40F 1:02:12 6:55

83 1004 Vicente Costa Ferrer 1981 36-V30M 1:02:19 6:55

84 1065 Pedro P. Porto Taboada 1974 Aubarca Trail 19-V40M 1:02:44 6:58

Página 2 de 4

www.elitechip.net info@elitechip.net TEL.676 035 552


Dorsal Nom i Llinatges Any nax Club/Ciutat Pos-Cat T_Oficial m/km Pos Real T_Real
85 1040 Angel Marin Costanilla 1989 37-V30M 1:03:09 7:01

86 1071 Sergio Saez 1991 38-V30M 1:03:20 7:02

87 1066 Teresa Huedo Fernández F 1978 Club Atletismo C.D. Ibiza 9- V40F 1:03:25 7:03

88 1076 Marcos Juan Tomas 1981 Farts De Figues 39-V30M 1:03:26 7:03

89 1017 Manuel Costa rodriguez 1982 farts de figues 40-V30M 1:03:26 7:03

90 1138 Ruth Cardona Riera F 1979 Pageses Verras Eivissa 10- V40F 1:03:33 7:04

91 1070 Alejandro Martinez Perez 1983 C.N. Eivissa Triatló 41-V30M 1:03:36 7:04

92 1059 Mariano Otal Faba 1962 G.E.Es Vedrà 6-V50M 1:03:38 7:04

93 1037 Dalva Lópes Da Cunha F 1973 11- V40F 1:04:15 7:08

94 1152 José luis Moreno Cervera 1973 20-V40M 1:04:16 7:08

95 1018 Lluc Serra Egea 2010 TriDeporte 3-S18M 1:04:16 7:08

96 1029 Guillem Serra Egea 2006 TriDeporte 4-S18M 1:04:20 7:09

97 1080 Petronela Elena Visan F 1972 1- OPF 1:04:31 7:10

98 1150 Antonio Bernal Garcia De Quiros 1947 Club Atletisme Santa Eulària 7-V50M 1:04:32 7:10

99 1013 Michele Cooper F 1963 1- V50F 1:04:33 7:10

100 1028 Inma Lisón Gómez F 1986 8- V30F 1:04:56 7:13

101 1009 Reyes Padin Perez F 1977 Bfit 12- V40F 1:05:14 7:15

102 1144 José Antonio Bermejo Villalonga 1968 Beer Runners Málaga 8-V50M 1:05:35 7:17

103 1146 Francisco Javier Adán 1975 Presuntos Triatletas 21-V40M 1:05:35 7:17

104 1006 Silvia Bermudez F 1980 Eiviatletisme Club Esportiu 9- V30F 1:05:40 7:18

105 1147 Monica Quintero Costa F 1975 13- V40F 1:06:12 7:21

106 1154 Maria Antonia Serra Cardona F 1991 Presuntos Triatletas 10- V30F 1:06:12 7:21

107 1141 José María Caballero Gómez 1986 Www.Ibizaisla.Es 42-V30M 1:06:21 7:22

108 1023 Juan Juan Escandell 1973 Es Calopi 22-V40M 1:06:21 7:22

109 1120 Juan alberto Garcia rubio 1978 23-V40M 1:06:30 7:23

110 1137 José Cantero Gonzalez 1950 Club Atletisme Santa Eulària 9-V50M 1:07:14 7:28

111 1140 Amanda Miró Pérez F 1991 Gimnasio Dojo Roig Pi 11- V30F 1:07:44 7:32

112 1114 Carlos Gonzalez Caramazana 1985 Independiente 43-V30M 1:08:03 7:34

113 1024 Jose Antonio Morata 1983 44-V30M 1:08:11 7:35

114 1041 Alicia Muñoz Garcia F 1988 12- V30F 1:08:19 7:35

115 1133 Olga Cardona Mayans F 1987 Club Atletisme Santa Eulària 13- V30F 1:08:43 7:38

116 1132 Cristina Juan Mari F 1976 Pageses Verres Eivissa 14- V40F 1:09:25 7:43

117 1005 Vicent Costa Bonet 1966 10-V50M 1:10:22 7:49

118 F 1988
1143 Maria Del Carmen Gallego Campos Atletismo Ibz 14- V30F 1:12:14 8:02

119 F 1989
1045 Ainara Balbas Llona Balbas Llona 15- V30F 1:13:48 8:12

120 1050 Marc Molina Madeirolas 2010 5-S18M 1:16:08 8:28

121 1131 Reyes Rodriguez Escalante F 1980 Club Atletisme Santa Eulària 16- V30F 1:16:20 8:29

122 1022 Juan Antonio Carrascosa Perez 1983 Isla Blanca 45-V30M 1:21:20 9:02

123 1031 Francisca Sala F 1994 17- V30F 1:21:21 9:02

Página 3 de 4

www.elitechip.net info@elitechip.net TEL.676 035 552


Dorsal Nom i Llinatges Any nax Club/Ciutat Pos-Cat T_Oficial m/km Pos Real T_Real

Retirats
1033 Esteban Fernandez Fischer 1982 Ret.

Página 4 de 4

www.elitechip.net info@elitechip.net TEL.676 035 552

Intereses relacionados